ETHF/FRZ METAR and TAF weather

Enter ICAO airport designator
Station Type Date Time Source
ETHF METAR 2021/09/28 16:20 UTC NOAA

ETHF 281620Z 17003KT 9999 FEW035 BKN180 BKN310 16/07 Q1021 BLU


Station Type Date Time Source
ETHF Decoded METAR 2021/09/28 16:20 UTC NOAA

Fritzlar, Germany (ETHF) 51-07N 009-17E 181M
Sep 28, 2021 - 12:20 PM EDT / 2021.09.28 1620 UTC
Wind: from the S (170 degrees) at 3 MPH (3 KT):0
Visibility: greater than 7 mile(s):0
Sky conditions: mostly cloudy
Temperature: 60 F (16 C)
Dew Point: 44 F (7 C)
Relative Humidity: 55%
Pressure (altimeter): 30.15 in. Hg (1021 hPa)
ob: ETHF 281620Z 17003KT 9999 FEW035 BKN180 BKN310 16/07 Q1021 BLU
cycle: 16

Station Type Date Time Source
ETHF TAF 2020/09/07 12:21 UTC NOAA

TAF ETHF 071611Z 0712/0802 VRB02KT 9999 NSW FEW030 PROB30 0723/0802 VRB01KT 5000 MIFG SKC

Example: see airport list